sensor_id;sensor_type;location;lat;lon;timestamp;P1;durP1;ratioP1;P2;durP2;ratioP2
9729;SDS011;4904;49.152;11.004;2023-02-20T00:00:46;11.05;;;6.57;;
9729;SDS011;4904;49.152;11.004;2023-02-20T00:03:14;9.27;;;5.95;;
9729;SDS011;4904;49.152;11.004;2023-02-20T00:05:41;9.60;;;6.32;;
9729;SDS011;4904;49.152;11.004;2023-02-20T00:08:08;9.43;;;6.22;;
9729;SDS011;4904;49.152;11.004;2023-02-20T00:10:35;8.77;;;6.40;;
9729;SDS011;4904;49.152;11.004;2023-02-20T00:13:02;7.22;;;5.70;;
9729;SDS011;4904;49.152;11.004;2023-02-20T00:15:30;8.98;;;6.28;;
9729;SDS011;4904;49.152;11.004;2023-02-20T00:17:57;8.38;;;5.32;;
9729;SDS011;4904;49.152;11.004;2023-02-20T00:20:24;6.57;;;4.78;;
9729;SDS011;4904;49.152;11.004;2023-02-20T00:22:54;9.70;;;5.60;;
9729;SDS011;4904;49.152;11.004;2023-02-20T00:25:21;7.68;;;5.85;;
9729;SDS011;4904;49.152;11.004;2023-02-20T00:27:48;11.65;;;6.05;;
9729;SDS011;4904;49.152;11.004;2023-02-20T00:30:15;7.70;;;5.72;;
9729;SDS011;4904;49.152;11.004;2023-02-20T00:32:46;7.80;;;5.40;;
9729;SDS011;4904;49.152;11.004;2023-02-20T00:35:14;7.10;;;5.60;;
9729;SDS011;4904;49.152;11.004;2023-02-20T00:37:42;6.78;;;5.53;;
9729;SDS011;4904;49.152;11.004;2023-02-20T00:40:10;8.35;;;5.75;;
9729;SDS011;4904;49.152;11.004;2023-02-20T00:42:38;8.60;;;5.75;;
9729;SDS011;4904;49.152;11.004;2023-02-20T00:45:05;8.45;;;5.97;;
9729;SDS011;4904;49.152;11.004;2023-02-20T00:47:33;10.57;;;5.90;;
9729;SDS011;4904;49.152;11.004;2023-02-20T00:50:01;7.88;;;5.68;;
9729;SDS011;4904;49.152;11.004;2023-02-20T00:52:28;11.98;;;5.55;;
9729;SDS011;4904;49.152;11.004;2023-02-20T00:54:55;8.48;;;6.15;;
9729;SDS011;4904;49.152;11.004;2023-02-20T00:57:22;10.02;;;5.80;;
9729;SDS011;4904;49.152;11.004;2023-02-20T00:59:49;11.48;;;6.50;;
9729;SDS011;4904;49.152;11.004;2023-02-20T01:02:17;9.68;;;6.43;;
9729;SDS011;4904;49.152;11.004;2023-02-20T01:04:44;11.00;;;6.30;;
9729;SDS011;4904;49.152;11.004;2023-02-20T01:07:12;8.65;;;6.00;;
9729;SDS011;4904;49.152;11.004;2023-02-20T01:09:39;8.98;;;6.50;;
9729;SDS011;4904;49.152;11.004;2023-02-20T01:12:06;10.68;;;6.97;;
9729;SDS011;4904;49.152;11.004;2023-02-20T01:14:33;8.57;;;6.45;;
9729;SDS011;4904;49.152;11.004;2023-02-20T01:17:00;8.70;;;6.45;;
9729;SDS011;4904;49.152;11.004;2023-02-20T01:19:27;10.40;;;6.68;;
9729;SDS011;4904;49.152;11.004;2023-02-20T01:21:54;9.85;;;6.20;;
9729;SDS011;4904;49.152;11.004;2023-02-20T01:24:22;10.60;;;6.97;;
9729;SDS011;4904;49.152;11.004;2023-02-20T01:26:49;10.18;;;6.22;;
9729;SDS011;4904;49.152;11.004;2023-02-20T01:29:17;10.20;;;6.93;;
9729;SDS011;4904;49.152;11.004;2023-02-20T01:31:47;8.52;;;5.95;;
9729;SDS011;4904;49.152;11.004;2023-02-20T01:34:14;8.48;;;6.38;;
9729;SDS011;4904;49.152;11.004;2023-02-20T01:36:45;8.38;;;6.43;;
9729;SDS011;4904;49.152;11.004;2023-02-20T01:39:15;7.65;;;6.68;;
9729;SDS011;4904;49.152;11.004;2023-02-20T01:41:44;8.00;;;6.40;;
9729;SDS011;4904;49.152;11.004;2023-02-20T01:44:16;8.30;;;6.15;;
9729;SDS011;4904;49.152;11.004;2023-02-20T01:46:48;9.77;;;6.88;;
9729;SDS011;4904;49.152;11.004;2023-02-20T01:49:18;9.65;;;5.90;;
9729;SDS011;4904;49.152;11.004;2023-02-20T01:51:52;8.93;;;6.68;;
9729;SDS011;4904;49.152;11.004;2023-02-20T01:54:26;9.80;;;6.00;;
9729;SDS011;4904;49.152;11.004;2023-02-20T01:56:57;10.15;;;7.20;;
9729;SDS011;4904;49.152;11.004;2023-02-20T01:59:28;10.02;;;7.18;;
9729;SDS011;4904;49.152;11.004;2023-02-20T02:01:59;10.00;;;6.45;;
9729;SDS011;4904;49.152;11.004;2023-02-20T02:04:26;9.02;;;6.45;;
9729;SDS011;4904;49.152;11.004;2023-02-20T02:06:55;9.95;;;7.10;;
9729;SDS011;4904;49.152;11.004;2023-02-20T02:09:28;8.57;;;6.97;;
9729;SDS011;4904;49.152;11.004;2023-02-20T02:12:03;10.05;;;7.13;;
9729;SDS011;4904;49.152;11.004;2023-02-20T02:14:31;11.25;;;6.95;;
9729;SDS011;4904;49.152;11.004;2023-02-20T02:17:07;10.88;;;5.22;;
9729;SDS011;4904;49.152;11.004;2023-02-20T02:20:02;9.32;;;6.05;;
9729;SDS011;4904;49.152;11.004;2023-02-20T02:22:57;9.07;;;6.70;;
9729;SDS011;4904;49.152;11.004;2023-02-20T02:25:46;9.35;;;6.70;;
9729;SDS011;4904;49.152;11.004;2023-02-20T02:31:31;8.73;;;6.53;;
9729;SDS011;4904;49.152;11.004;2023-02-20T02:37:18;11.10;;;7.22;;
9729;SDS011;4904;49.152;11.004;2023-02-20T02:39:56;9.77;;;6.45;;
9729;SDS011;4904;49.152;11.004;2023-02-20T02:42:31;9.10;;;6.47;;
9729;SDS011;4904;49.152;11.004;2023-02-20T02:45:08;8.82;;;6.63;;
9729;SDS011;4904;49.152;11.004;2023-02-20T02:47:40;9.57;;;6.47;;
9729;SDS011;4904;49.152;11.004;2023-02-20T02:50:14;9.15;;;6.47;;
9729;SDS011;4904;49.152;11.004;2023-02-20T02:52:47;11.45;;;5.63;;
9729;SDS011;4904;49.152;11.004;2023-02-20T02:55:18;12.05;;;6.70;;
9729;SDS011;4904;49.152;11.004;2023-02-20T02:57:46;7.90;;;6.50;;
9729;SDS011;4904;49.152;11.004;2023-02-20T03:00:15;10.13;;;6.63;;
9729;SDS011;4904;49.152;11.004;2023-02-20T03:02:46;9.82;;;6.47;;
9729;SDS011;4904;49.152;11.004;2023-02-20T03:05:20;8.88;;;6.30;;
9729;SDS011;4904;49.152;11.004;2023-02-20T03:08:06;9.52;;;5.70;;
9729;SDS011;4904;49.152;11.004;2023-02-20T03:10:38;8.40;;;5.72;;
9729;SDS011;4904;49.152;11.004;2023-02-20T03:13:06;8.57;;;6.60;;
9729;SDS011;4904;49.152;11.004;2023-02-20T03:15:37;11.23;;;6.68;;
9729;SDS011;4904;49.152;11.004;2023-02-20T03:18:13;9.18;;;6.63;;
9729;SDS011;4904;49.152;11.004;2023-02-20T03:20:47;9.80;;;6.25;;
9729;SDS011;4904;49.152;11.004;2023-02-20T03:23:19;12.40;;;5.95;;
9729;SDS011;4904;49.152;11.004;2023-02-20T03:25:49;7.57;;;6.20;;
9729;SDS011;4904;49.152;11.004;2023-02-20T03:28:20;11.32;;;7.18;;
9729;SDS011;4904;49.152;11.004;2023-02-20T03:30:52;8.05;;;6.25;;
9729;SDS011;4904;49.152;11.004;2023-02-20T03:33:23;7.93;;;6.05;;
9729;SDS011;4904;49.152;11.004;2023-02-20T03:36:12;8.52;;;6.88;;
9729;SDS011;4904;49.152;11.004;2023-02-20T03:39:03;9.13;;;6.32;;
9729;SDS011;4904;49.152;11.004;2023-02-20T03:41:50;10.40;;;6.60;;
9729;SDS011;4904;49.152;11.004;2023-02-20T03:44:36;10.23;;;6.90;;
9729;SDS011;4904;49.152;11.004;2023-02-20T03:47:04;8.88;;;6.25;;
9729;SDS011;4904;49.152;11.004;2023-02-20T03:49:34;10.55;;;6.57;;
9729;SDS011;4904;49.152;11.004;2023-02-20T03:52:04;11.65;;;4.90;;
9729;SDS011;4904;49.152;11.004;2023-02-20T03:54:33;11.15;;;6.47;;
9729;SDS011;4904;49.152;11.004;2023-02-20T03:57:02;8.73;;;6.28;;
9729;SDS011;4904;49.152;11.004;2023-02-20T03:59:32;9.57;;;6.22;;
9729;SDS011;4904;49.152;11.004;2023-02-20T04:02:06;9.75;;;6.30;;
9729;SDS011;4904;49.152;11.004;2023-02-20T04:04:39;11.10;;;6.63;;
9729;SDS011;4904;49.152;11.004;2023-02-20T04:07:11;11.48;;;6.72;;
9729;SDS011;4904;49.152;11.004;2023-02-20T04:09:45;7.72;;;5.57;;
9729;SDS011;4904;49.152;11.004;2023-02-20T04:12:13;8.73;;;5.80;;
9729;SDS011;4904;49.152;11.004;2023-02-20T04:14:46;10.15;;;6.50;;
9729;SDS011;4904;49.152;11.004;2023-02-20T04:17:19;8.73;;;5.93;;
9729;SDS011;4904;49.152;11.004;2023-02-20T04:19:49;8.32;;;6.53;;
9729;SDS011;4904;49.152;11.004;2023-02-20T04:22:16;8.75;;;6.13;;
9729;SDS011;4904;49.152;11.004;2023-02-20T04:24:49;9.85;;;6.40;;
9729;SDS011;4904;49.152;11.004;2023-02-20T04:27:20;7.57;;;5.65;;
9729;SDS011;4904;49.152;11.004;2023-02-20T04:29:47;9.77;;;6.25;;
9729;SDS011;4904;49.152;11.004;2023-02-20T04:32:14;8.18;;;6.40;;
9729;SDS011;4904;49.152;11.004;2023-02-20T04:34:41;8.82;;;5.97;;
9729;SDS011;4904;49.152;11.004;2023-02-20T04:37:09;9.45;;;6.63;;
9729;SDS011;4904;49.152;11.004;2023-02-20T04:39:38;9.05;;;6.18;;
9729;SDS011;4904;49.152;11.004;2023-02-20T04:42:06;10.55;;;5.82;;
9729;SDS011;4904;49.152;11.004;2023-02-20T04:44:33;8.48;;;6.10;;
9729;SDS011;4904;49.152;11.004;2023-02-20T04:47:01;8.18;;;6.15;;
9729;SDS011;4904;49.152;11.004;2023-02-20T04:49:30;8.18;;;5.93;;
9729;SDS011;4904;49.152;11.004;2023-02-20T04:51:57;9.43;;;6.25;;
9729;SDS011;4904;49.152;11.004;2023-02-20T04:54:24;7.20;;;5.88;;
9729;SDS011;4904;49.152;11.004;2023-02-20T04:56:51;7.93;;;5.63;;
9729;SDS011;4904;49.152;11.004;2023-02-20T04:59:20;5.80;;;5.20;;
9729;SDS011;4904;49.152;11.004;2023-02-20T05:01:47;9.73;;;6.18;;
9729;SDS011;4904;49.152;11.004;2023-02-20T05:04:16;9.60;;;6.00;;
9729;SDS011;4904;49.152;11.004;2023-02-20T05:06:44;8.35;;;6.20;;
9729;SDS011;4904;49.152;11.004;2023-02-20T05:09:13;8.20;;;6.30;;
9729;SDS011;4904;49.152;11.004;2023-02-20T05:11:40;7.78;;;6.85;;
9729;SDS011;4904;49.152;11.004;2023-02-20T05:14:07;10.13;;;6.63;;
9729;SDS011;4904;49.152;11.004;2023-02-20T05:16:36;6.43;;;5.40;;
9729;SDS011;4904;49.152;11.004;2023-02-20T05:19:04;9.30;;;6.10;;
9729;SDS011;4904;49.152;11.004;2023-02-20T05:21:32;7.53;;;6.40;;
9729;SDS011;4904;49.152;11.004;2023-02-20T05:24:17;8.35;;;5.85;;
9729;SDS011;4904;49.152;11.004;2023-02-20T05:26:44;9.98;;;6.65;;
9729;SDS011;4904;49.152;11.004;2023-02-20T05:29:12;10.63;;;6.70;;
9729;SDS011;4904;49.152;11.004;2023-02-20T05:31:41;8.05;;;6.43;;
9729;SDS011;4904;49.152;11.004;2023-02-20T05:34:07;10.95;;;7.03;;
9729;SDS011;4904;49.152;11.004;2023-02-20T05:36:34;12.52;;;6.50;;
9729;SDS011;4904;49.152;11.004;2023-02-20T05:39:02;9.43;;;6.57;;
9729;SDS011;4904;49.152;11.004;2023-02-20T05:41:29;10.70;;;6.38;;
9729;SDS011;4904;49.152;11.004;2023-02-20T05:43:56;8.85;;;6.72;;
9729;SDS011;4904;49.152;11.004;2023-02-20T05:46:24;16.73;;;7.65;;
9729;SDS011;4904;49.152;11.004;2023-02-20T05:48:53;10.43;;;6.80;;
9729;SDS011;4904;49.152;11.004;2023-02-20T05:51:21;10.90;;;6.60;;
9729;SDS011;4904;49.152;11.004;2023-02-20T05:53:48;11.13;;;7.22;;
9729;SDS011;4904;49.152;11.004;2023-02-20T05:56:15;7.10;;;5.65;;
9729;SDS011;4904;49.152;11.004;2023-02-20T05:58:42;13.23;;;7.55;;
9729;SDS011;4904;49.152;11.004;2023-02-20T06:01:15;12.52;;;6.50;;
9729;SDS011;4904;49.152;11.004;2023-02-20T06:03:42;12.15;;;6.50;;
9729;SDS011;4904;49.152;11.004;2023-02-20T06:06:11;9.77;;;6.00;;
9729;SDS011;4904;49.152;11.004;2023-02-20T06:08:38;8.15;;;6.10;;
9729;SDS011;4904;49.152;11.004;2023-02-20T06:11:05;9.13;;;6.22;;
9729;SDS011;4904;49.152;11.004;2023-02-20T06:13:34;8.98;;;6.28;;
9729;SDS011;4904;49.152;11.004;2023-02-20T06:16:00;8.43;;;5.82;;
9729;SDS011;4904;49.152;11.004;2023-02-20T06:18:27;8.90;;;6.07;;
9729;SDS011;4904;49.152;11.004;2023-02-20T06:20:54;8.82;;;6.55;;
9729;SDS011;4904;49.152;11.004;2023-02-20T06:23:22;9.95;;;6.90;;
9729;SDS011;4904;49.152;11.004;2023-02-20T06:25:49;8.35;;;5.78;;
9729;SDS011;4904;49.152;11.004;2023-02-20T06:28:16;7.90;;;5.80;;
9729;SDS011;4904;49.152;11.004;2023-02-20T06:30:43;11.73;;;6.57;;
9729;SDS011;4904;49.152;11.004;2023-02-20T06:33:10;11.18;;;5.13;;
9729;SDS011;4904;49.152;11.004;2023-02-20T06:35:37;7.32;;;6.28;;
9729;SDS011;4904;49.152;11.004;2023-02-20T06:38:04;9.02;;;5.82;;
9729;SDS011;4904;49.152;11.004;2023-02-20T06:40:32;9.68;;;6.40;;
9729;SDS011;4904;49.152;11.004;2023-02-20T06:42:59;8.77;;;5.57;;
9729;SDS011;4904;49.152;11.004;2023-02-20T06:45:26;10.63;;;5.40;;
9729;SDS011;4904;49.152;11.004;2023-02-20T06:47:53;7.60;;;5.32;;
9729;SDS011;4904;49.152;11.004;2023-02-20T06:50:20;10.13;;;5.15;;
9729;SDS011;4904;49.152;11.004;2023-02-20T06:52:47;8.32;;;5.32;;
9729;SDS011;4904;49.152;11.004;2023-02-20T06:55:14;7.85;;;5.28;;
9729;SDS011;4904;49.152;11.004;2023-02-20T06:57:42;8.07;;;5.15;;
9729;SDS011;4904;49.152;11.004;2023-02-20T07:00:10;6.53;;;4.43;;
9729;SDS011;4904;49.152;11.004;2023-02-20T07:02:37;7.95;;;4.97;;
9729;SDS011;4904;49.152;11.004;2023-02-20T07:05:05;10.73;;;5.45;;
9729;SDS011;4904;49.152;11.004;2023-02-20T07:07:33;7.75;;;4.63;;
9729;SDS011;4904;49.152;11.004;2023-02-20T07:10:00;8.88;;;4.97;;
9729;SDS011;4904;49.152;11.004;2023-02-20T07:12:28;6.90;;;5.07;;
9729;SDS011;4904;49.152;11.004;2023-02-20T07:14:57;7.30;;;4.50;;
9729;SDS011;4904;49.152;11.004;2023-02-20T07:17:24;8.43;;;4.85;;
9729;SDS011;4904;49.152;11.004;2023-02-20T07:19:51;7.70;;;5.28;;
9729;SDS011;4904;49.152;11.004;2023-02-20T07:22:18;6.63;;;4.13;;
9729;SDS011;4904;49.152;11.004;2023-02-20T07:24:48;9.52;;;4.70;;
9729;SDS011;4904;49.152;11.004;2023-02-20T07:27:16;4.93;;;3.50;;
9729;SDS011;4904;49.152;11.004;2023-02-20T07:29:43;9.65;;;4.47;;
9729;SDS011;4904;49.152;11.004;2023-02-20T07:32:12;8.48;;;4.80;;
9729;SDS011;4904;49.152;11.004;2023-02-20T07:34:39;6.53;;;4.22;;
9729;SDS011;4904;49.152;11.004;2023-02-20T07:37:06;5.28;;;4.22;;
9729;SDS011;4904;49.152;11.004;2023-02-20T07:39:33;7.07;;;4.43;;
9729;SDS011;4904;49.152;11.004;2023-02-20T07:41:59;9.48;;;5.53;;
9729;SDS011;4904;49.152;11.004;2023-02-20T07:44:26;9.25;;;3.90;;
9729;SDS011;4904;49.152;11.004;2023-02-20T07:46:53;4.40;;;3.53;;
9729;SDS011;4904;49.152;11.004;2023-02-20T07:49:21;6.70;;;4.57;;
9729;SDS011;4904;49.152;11.004;2023-02-20T07:51:48;7.40;;;3.90;;
9729;SDS011;4904;49.152;11.004;2023-02-20T07:54:15;6.13;;;4.13;;
9729;SDS011;4904;49.152;11.004;2023-02-20T07:56:42;8.13;;;4.43;;
9729;SDS011;4904;49.152;11.004;2023-02-20T07:59:09;7.28;;;4.95;;
9729;SDS011;4904;49.152;11.004;2023-02-20T08:01:36;8.02;;;4.13;;
9729;SDS011;4904;49.152;11.004;2023-02-20T08:04:03;5.05;;;3.50;;
9729;SDS011;4904;49.152;11.004;2023-02-20T08:06:31;6.35;;;3.95;;
9729;SDS011;4904;49.152;11.004;2023-02-20T08:08:59;6.45;;;4.25;;
9729;SDS011;4904;49.152;11.004;2023-02-20T08:11:26;6.43;;;3.47;;
9729;SDS011;4904;49.152;11.004;2023-02-20T08:13:53;5.03;;;3.50;;
9729;SDS011;4904;49.152;11.004;2023-02-20T08:16:20;5.40;;;3.70;;
9729;SDS011;4904;49.152;11.004;2023-02-20T08:18:47;6.40;;;3.55;;
9729;SDS011;4904;49.152;11.004;2023-02-20T08:21:14;6.20;;;3.80;;
9729;SDS011;4904;49.152;11.004;2023-02-20T08:23:42;7.38;;;3.60;;
9729;SDS011;4904;49.152;11.004;2023-02-20T08:26:09;6.28;;;3.38;;
9729;SDS011;4904;49.152;11.004;2023-02-20T08:28:37;5.68;;;3.92;;
9729;SDS011;4904;49.152;11.004;2023-02-20T08:31:04;6.97;;;4.35;;
9729;SDS011;4904;49.152;11.004;2023-02-20T08:33:31;7.10;;;3.53;;
9729;SDS011;4904;49.152;11.004;2023-02-20T08:35:58;6.13;;;3.45;;
9729;SDS011;4904;49.152;11.004;2023-02-20T08:38:27;8.48;;;3.65;;
9729;SDS011;4904;49.152;11.004;2023-02-20T08:40:57;5.03;;;3.28;;
9729;SDS011;4904;49.152;11.004;2023-02-20T08:43:24;6.93;;;3.22;;
9729;SDS011;4904;49.152;11.004;2023-02-20T08:45:51;4.18;;;3.40;;
9729;SDS011;4904;49.152;11.004;2023-02-20T08:48:18;6.47;;;3.53;;
9729;SDS011;4904;49.152;11.004;2023-02-20T08:50:51;5.80;;;3.65;;
9729;SDS011;4904;49.152;11.004;2023-02-20T08:53:20;4.72;;;3.00;;
9729;SDS011;4904;49.152;11.004;2023-02-20T08:55:47;5.50;;;3.55;;
9729;SDS011;4904;49.152;11.004;2023-02-20T08:58:19;5.90;;;3.25;;
9729;SDS011;4904;49.152;11.004;2023-02-20T09:00:48;6.10;;;3.78;;
9729;SDS011;4904;49.152;11.004;2023-02-20T09:03:15;7.85;;;3.60;;
9729;SDS011;4904;49.152;11.004;2023-02-20T09:05:43;4.97;;;3.58;;
9729;SDS011;4904;49.152;11.004;2023-02-20T09:08:10;5.63;;;3.58;;
9729;SDS011;4904;49.152;11.004;2023-02-20T09:10:37;7.47;;;3.97;;
9729;SDS011;4904;49.152;11.004;2023-02-20T09:13:04;6.72;;;3.60;;
9729;SDS011;4904;49.152;11.004;2023-02-20T09:15:32;4.22;;;2.95;;
9729;SDS011;4904;49.152;11.004;2023-02-20T09:18:03;7.35;;;2.80;;
9729;SDS011;4904;49.152;11.004;2023-02-20T09:20:33;5.75;;;3.00;;
9729;SDS011;4904;49.152;11.004;2023-02-20T09:23:00;6.72;;;3.60;;
9729;SDS011;4904;49.152;11.004;2023-02-20T09:25:27;5.60;;;3.33;;
9729;SDS011;4904;49.152;11.004;2023-02-20T09:27:54;4.15;;;2.58;;
9729;SDS011;4904;49.152;11.004;2023-02-20T09:30:21;6.15;;;2.67;;
9729;SDS011;4904;49.152;11.004;2023-02-20T09:32:50;5.28;;;3.10;;
9729;SDS011;4904;49.152;11.004;2023-02-20T09:35:18;4.57;;;3.00;;
9729;SDS011;4904;49.152;11.004;2023-02-20T09:37:46;4.22;;;2.95;;
9729;SDS011;4904;49.152;11.004;2023-02-20T09:40:14;5.18;;;2.78;;
9729;SDS011;4904;49.152;11.004;2023-02-20T09:42:45;6.57;;;3.00;;
9729;SDS011;4904;49.152;11.004;2023-02-20T09:45:23;5.60;;;3.10;;
9729;SDS011;4904;49.152;11.004;2023-02-20T09:47:58;4.93;;;3.20;;
9729;SDS011;4904;49.152;11.004;2023-02-20T09:50:36;5.00;;;3.00;;
9729;SDS011;4904;49.152;11.004;2023-02-20T09:53:11;4.85;;;2.95;;
9729;SDS011;4904;49.152;11.004;2023-02-20T09:55:46;5.43;;;3.40;;
9729;SDS011;4904;49.152;11.004;2023-02-20T09:58:18;3.92;;;2.63;;
9729;SDS011;4904;49.152;11.004;2023-02-20T10:00:48;4.43;;;2.63;;
9729;SDS011;4904;49.152;11.004;2023-02-20T10:03:19;3.65;;;2.63;;
9729;SDS011;4904;49.152;11.004;2023-02-20T10:05:52;5.28;;;3.28;;
9729;SDS011;4904;49.152;11.004;2023-02-20T10:08:22;2.95;;;1.95;;
9729;SDS011;4904;49.152;11.004;2023-02-20T10:10:50;4.32;;;2.80;;
9729;SDS011;4904;49.152;11.004;2023-02-20T10:13:28;6.45;;;3.70;;
9729;SDS011;4904;49.152;11.004;2023-02-20T10:16:12;5.95;;;3.40;;
9729;SDS011;4904;49.152;11.004;2023-02-20T10:18:55;3.80;;;2.83;;
9729;SDS011;4904;49.152;11.004;2023-02-20T10:21:33;4.63;;;2.80;;
9729;SDS011;4904;49.152;11.004;2023-02-20T10:24:17;6.57;;;2.33;;
9729;SDS011;4904;49.152;11.004;2023-02-20T10:27:02;6.20;;;3.22;;
9729;SDS011;4904;49.152;11.004;2023-02-20T10:29:41;4.10;;;2.40;;
9729;SDS011;4904;49.152;11.004;2023-02-20T10:32:11;6.53;;;2.60;;
9729;SDS011;4904;49.152;11.004;2023-02-20T10:34:48;5.55;;;2.80;;
9729;SDS011;4904;49.152;11.004;2023-02-20T10:37:20;7.15;;;3.08;;
9729;SDS011;4904;49.152;11.004;2023-02-20T10:39:51;3.63;;;2.58;;
9729;SDS011;4904;49.152;11.004;2023-02-20T10:42:26;5.00;;;2.33;;
9729;SDS011;4904;49.152;11.004;2023-02-20T10:44:58;6.50;;;2.90;;
9729;SDS011;4904;49.152;11.004;2023-02-20T10:47:29;4.45;;;2.50;;
9729;SDS011;4904;49.152;11.004;2023-02-20T10:50:06;7.22;;;2.50;;
9729;SDS011;4904;49.152;11.004;2023-02-20T10:52:38;5.53;;;2.90;;
9729;SDS011;4904;49.152;11.004;2023-02-20T10:55:12;4.32;;;2.30;;
9729;SDS011;4904;49.152;11.004;2023-02-20T10:57:44;6.30;;;2.72;;
9729;SDS011;4904;49.152;11.004;2023-02-20T11:00:15;4.80;;;2.70;;
9729;SDS011;4904;49.152;11.004;2023-02-20T11:02:45;4.70;;;2.42;;
9729;SDS011;4904;49.152;11.004;2023-02-20T11:05:19;3.45;;;2.22;;
9729;SDS011;4904;49.152;11.004;2023-02-20T11:07:49;6.05;;;3.05;;
9729;SDS011;4904;49.152;11.004;2023-02-20T11:10:16;2.97;;;2.20;;
9729;SDS011;4904;49.152;11.004;2023-02-20T11:12:45;2.83;;;2.17;;
9729;SDS011;4904;49.152;11.004;2023-02-20T11:15:16;4.85;;;2.30;;
9729;SDS011;4904;49.152;11.004;2023-02-20T11:17:47;3.65;;;2.17;;
9729;SDS011;4904;49.152;11.004;2023-02-20T11:23:10;3.30;;;2.17;;
9729;SDS011;4904;49.152;11.004;2023-02-20T11:26:14;2.60;;;1.85;;
9729;SDS011;4904;49.152;11.004;2023-02-20T11:28:54;2.90;;;1.80;;
9729;SDS011;4904;49.152;11.004;2023-02-20T11:31:24;3.33;;;1.98;;
9729;SDS011;4904;49.152;11.004;2023-02-20T11:33:53;4.82;;;2.00;;
9729;SDS011;4904;49.152;11.004;2023-02-20T11:36:22;4.57;;;2.10;;
9729;SDS011;4904;49.152;11.004;2023-02-20T11:38:55;2.50;;;1.80;;
9729;SDS011;4904;49.152;11.004;2023-02-20T11:41:33;4.03;;;1.80;;
9729;SDS011;4904;49.152;11.004;2023-02-20T11:44:05;3.55;;;1.80;;
9729;SDS011;4904;49.152;11.004;2023-02-20T11:46:44;3.08;;;1.90;;
9729;SDS011;4904;49.152;11.004;2023-02-20T11:49:21;3.40;;;1.70;;
9729;SDS011;4904;49.152;11.004;2023-02-20T11:51:50;2.22;;;1.90;;
9729;SDS011;4904;49.152;11.004;2023-02-20T11:54:18;1.75;;;1.30;;
9729;SDS011;4904;49.152;11.004;2023-02-20T11:56:53;2.83;;;1.80;;
9729;SDS011;4904;49.152;11.004;2023-02-20T11:59:25;3.40;;;1.88;;
9729;SDS011;4904;49.152;11.004;2023-02-20T12:02:11;4.68;;;2.00;;
9729;SDS011;4904;49.152;11.004;2023-02-20T12:04:59;2.22;;;1.67;;
9729;SDS011;4904;49.152;11.004;2023-02-20T12:07:34;3.45;;;1.73;;
9729;SDS011;4904;49.152;11.004;2023-02-20T12:10:04;5.05;;;2.00;;
9729;SDS011;4904;49.152;11.004;2023-02-20T12:12:56;2.63;;;1.92;;
9729;SDS011;4904;49.152;11.004;2023-02-20T12:15:24;2.70;;;1.90;;
9729;SDS011;4904;49.152;11.004;2023-02-20T12:18:00;3.60;;;2.05;;
9729;SDS011;4904;49.152;11.004;2023-02-20T12:20:51;4.75;;;2.13;;
9729;SDS011;4904;49.152;11.004;2023-02-20T12:23:28;3.13;;;1.95;;
9729;SDS011;4904;49.152;11.004;2023-02-20T12:26:10;3.22;;;1.90;;
9729;SDS011;4904;49.152;11.004;2023-02-20T12:28:47;4.80;;;2.05;;
9729;SDS011;4904;49.152;11.004;2023-02-20T12:31:24;2.88;;;1.80;;
9729;SDS011;4904;49.152;11.004;2023-02-20T12:34:18;2.03;;;1.60;;
9729;SDS011;4904;49.152;11.004;2023-02-20T12:37:02;2.83;;;2.17;;
9729;SDS011;4904;49.152;11.004;2023-02-20T12:39:41;2.47;;;1.77;;
9729;SDS011;4904;49.152;11.004;2023-02-20T12:42:21;3.25;;;1.90;;
9729;SDS011;4904;49.152;11.004;2023-02-20T12:47:49;3.63;;;1.90;;
9729;SDS011;4904;49.152;11.004;2023-02-20T12:50:28;2.17;;;1.90;;
9729;SDS011;4904;49.152;11.004;2023-02-20T12:56:14;2.92;;;1.73;;
9729;SDS011;4904;49.152;11.004;2023-02-20T12:59:06;4.72;;;1.70;;
9729;SDS011;4904;49.152;11.004;2023-02-20T13:01:40;4.28;;;1.80;;
9729;SDS011;4904;49.152;11.004;2023-02-20T13:04:10;3.60;;;1.73;;
9729;SDS011;4904;49.152;11.004;2023-02-20T13:06:50;1.67;;;1.10;;
9729;SDS011;4904;49.152;11.004;2023-02-20T13:09:22;2.50;;;1.75;;
9729;SDS011;4904;49.152;11.004;2023-02-20T13:11:54;2.10;;;1.52;;
9729;SDS011;4904;49.152;11.004;2023-02-20T13:14:28;4.00;;;1.50;;
9729;SDS011;4904;49.152;11.004;2023-02-20T13:17:07;2.78;;;1.70;;
9729;SDS011;4904;49.152;11.004;2023-02-20T13:19:44;3.05;;;1.60;;
9729;SDS011;4904;49.152;11.004;2023-02-20T13:22:20;2.53;;;1.75;;
9729;SDS011;4904;49.152;11.004;2023-02-20T13:24:47;3.75;;;1.60;;
9729;SDS011;4904;49.152;11.004;2023-02-20T13:27:26;2.20;;;1.70;;
9729;SDS011;4904;49.152;11.004;2023-02-20T13:29:55;2.40;;;1.80;;
9729;SDS011;4904;49.152;11.004;2023-02-20T13:32:25;5.70;;;2.10;;
9729;SDS011;4904;49.152;11.004;2023-02-20T13:34:55;4.25;;;1.73;;
9729;SDS011;4904;49.152;11.004;2023-02-20T13:38:08;3.53;;;2.00;;
9729;SDS011;4904;49.152;11.004;2023-02-20T13:40:36;1.75;;;1.63;;
9729;SDS011;4904;49.152;11.004;2023-02-20T13:43:19;2.53;;;1.40;;
9729;SDS011;4904;49.152;11.004;2023-02-20T13:46:14;2.53;;;1.60;;
9729;SDS011;4904;49.152;11.004;2023-02-20T13:48:49;2.20;;;1.83;;
9729;SDS011;4904;49.152;11.004;2023-02-20T13:54:18;2.97;;;1.92;;
9729;SDS011;4904;49.152;11.004;2023-02-20T13:56:51;1.48;;;1.38;;
9729;SDS011;4904;49.152;11.004;2023-02-20T13:59:25;2.58;;;1.48;;
9729;SDS011;4904;49.152;11.004;2023-02-20T14:01:59;2.60;;;1.40;;
9729;SDS011;4904;49.152;11.004;2023-02-20T14:04:28;3.08;;;1.92;;
9729;SDS011;4904;49.152;11.004;2023-02-20T14:06:55;2.20;;;1.35;;
9729;SDS011;4904;49.152;11.004;2023-02-20T14:09:23;2.85;;;1.35;;
9729;SDS011;4904;49.152;11.004;2023-02-20T14:11:54;0.90;;;0.90;;
9729;SDS011;4904;49.152;11.004;2023-02-20T14:14:34;1.67;;;1.40;;
9729;SDS011;4904;49.152;11.004;2023-02-20T14:17:04;2.60;;;1.35;;
9729;SDS011;4904;49.152;11.004;2023-02-20T14:19:35;3.80;;;1.40;;
9729;SDS011;4904;49.152;11.004;2023-02-20T14:22:13;2.40;;;1.33;;
9729;SDS011;4904;49.152;11.004;2023-02-20T14:24:59;2.05;;;1.40;;
9729;SDS011;4904;49.152;11.004;2023-02-20T14:27:28;1.38;;;1.13;;
9729;SDS011;4904;49.152;11.004;2023-02-20T14:30:04;1.42;;;1.05;;
9729;SDS011;4904;49.152;11.004;2023-02-20T14:32:33;3.15;;;1.33;;
9729;SDS011;4904;49.152;11.004;2023-02-20T14:35:01;2.13;;;1.40;;
9729;SDS011;4904;49.152;11.004;2023-02-20T14:37:35;1.90;;;1.20;;
9729;SDS011;4904;49.152;11.004;2023-02-20T14:40:12;1.40;;;1.30;;
9729;SDS011;4904;49.152;11.004;2023-02-20T14:42:43;3.33;;;1.58;;
9729;SDS011;4904;49.152;11.004;2023-02-20T14:45:13;4.03;;;1.50;;
9729;SDS011;4904;49.152;11.004;2023-02-20T14:47:51;2.55;;;1.60;;
9729;SDS011;4904;49.152;11.004;2023-02-20T14:50:20;2.65;;;1.65;;
9729;SDS011;4904;49.152;11.004;2023-02-20T14:52:59;1.92;;;1.30;;
9729;SDS011;4904;49.152;11.004;2023-02-20T14:55:27;1.17;;;0.93;;
9729;SDS011;4904;49.152;11.004;2023-02-20T14:57:54;1.63;;;1.23;;
9729;SDS011;4904;49.152;11.004;2023-02-20T15:00:24;2.08;;;1.30;;
9729;SDS011;4904;49.152;11.004;2023-02-20T15:02:59;3.58;;;1.48;;
9729;SDS011;4904;49.152;11.004;2023-02-20T15:05:27;3.40;;;1.40;;
9729;SDS011;4904;49.152;11.004;2023-02-20T15:07:59;2.67;;;1.20;;
9729;SDS011;4904;49.152;11.004;2023-02-20T15:10:37;3.25;;;1.90;;
9729;SDS011;4904;49.152;11.004;2023-02-20T15:13:08;1.85;;;1.25;;
9729;SDS011;4904;49.152;11.004;2023-02-20T15:15:37;1.27;;;1.10;;
9729;SDS011;4904;49.152;11.004;2023-02-20T15:18:07;2.22;;;1.38;;
9729;SDS011;4904;49.152;11.004;2023-02-20T15:20:37;3.80;;;1.58;;
9729;SDS011;4904;49.152;11.004;2023-02-20T15:23:07;1.80;;;1.23;;
9729;SDS011;4904;49.152;11.004;2023-02-20T15:25:35;1.70;;;1.20;;
9729;SDS011;4904;49.152;11.004;2023-02-20T15:28:07;2.22;;;1.35;;
9729;SDS011;4904;49.152;11.004;2023-02-20T15:33:47;3.63;;;1.20;;
9729;SDS011;4904;49.152;11.004;2023-02-20T15:36:18;1.45;;;1.35;;
9729;SDS011;4904;49.152;11.004;2023-02-20T15:38:46;3.75;;;1.23;;
9729;SDS011;4904;49.152;11.004;2023-02-20T15:41:13;2.83;;;1.30;;
9729;SDS011;4904;49.152;11.004;2023-02-20T15:43:42;3.33;;;1.30;;
9729;SDS011;4904;49.152;11.004;2023-02-20T15:46:09;2.67;;;1.40;;